sensor_id;sensor_type;location;lat;lon;timestamp;pressure;altitude;pressure_sealevel;temperature;humidity
63343;BME280;49465;57.664;39.686;2023-07-31T00:01:19;99378.19;;;20.14;61.67
63343;BME280;49465;57.664;39.686;2023-07-31T00:03:46;99382.03;;;20.12;61.63
63343;BME280;49465;57.664;39.686;2023-07-31T00:06:13;99375.25;;;20.09;61.72
63343;BME280;49465;57.664;39.686;2023-07-31T00:08:39;99375.91;;;20.11;61.62
63343;BME280;49465;57.664;39.686;2023-07-31T00:11:06;99383.25;;;20.09;61.82
63343;BME280;49465;57.664;39.686;2023-07-31T00:13:32;99374.41;;;20.09;61.73
63343;BME280;49465;57.664;39.686;2023-07-31T00:15:58;99380.59;;;20.09;61.52
63343;BME280;49465;57.664;39.686;2023-07-31T00:18:25;99379.09;;;20.07;61.73
63343;BME280;49465;57.664;39.686;2023-07-31T00:20:51;99384.41;;;20.07;61.52
63343;BME280;49465;57.664;39.686;2023-07-31T00:23:17;99382.31;;;20.02;61.89
63343;BME280;49465;57.664;39.686;2023-07-31T00:25:44;99382.31;;;20.02;61.66
63343;BME280;49465;57.664;39.686;2023-07-31T00:28:10;99383.13;;;20.03;61.84
63343;BME280;49465;57.664;39.686;2023-07-31T00:30:36;99386.16;;;20.00;61.85
63343;BME280;49465;57.664;39.686;2023-07-31T00:33:03;99374.69;;;19.99;61.64
63343;BME280;49465;57.664;39.686;2023-07-31T00:35:29;99375.88;;;19.97;61.68
63343;BME280;49465;57.664;39.686;2023-07-31T00:37:57;99378.53;;;19.97;62.14
63343;BME280;49465;57.664;39.686;2023-07-31T00:40:24;99390.72;;;19.91;61.97
63343;BME280;49465;57.664;39.686;2023-07-31T00:42:50;99385.56;;;19.89;62.00
63343;BME280;49465;57.664;39.686;2023-07-31T00:45:19;99385.56;;;19.89;61.87
63343;BME280;49465;57.664;39.686;2023-07-31T00:47:49;99388.78;;;19.85;62.05
63343;BME280;49465;57.664;39.686;2023-07-31T00:50:15;99388.63;;;19.86;61.71
63343;BME280;49465;57.664;39.686;2023-07-31T00:52:41;99383.66;;;19.83;61.91
63343;BME280;49465;57.664;39.686;2023-07-31T00:55:08;99383.19;;;19.80;62.18
63343;BME280;49465;57.664;39.686;2023-07-31T00:57:36;99387.16;;;19.84;62.09
63343;BME280;49465;57.664;39.686;2023-07-31T01:00:05;99384.19;;;19.79;62.13
63343;BME280;49465;57.664;39.686;2023-07-31T01:02:32;99390.97;;;19.81;61.72
63343;BME280;49465;57.664;39.686;2023-07-31T01:04:58;99392.19;;;19.79;62.07
63343;BME280;49465;57.664;39.686;2023-07-31T01:07:52;99393.50;;;20.12;61.87
63343;BME280;49465;57.664;39.686;2023-07-31T01:10:34;99400.38;;;19.92;61.69
63343;BME280;49465;57.664;39.686;2023-07-31T01:13:06;99392.09;;;19.87;61.67
63343;BME280;49465;57.664;39.686;2023-07-31T01:15:34;99388.16;;;19.83;61.68
63343;BME280;49465;57.664;39.686;2023-07-31T01:18:00;99385.66;;;19.81;61.77
63343;BME280;49465;57.664;39.686;2023-07-31T01:20:27;99395.31;;;19.82;61.96
63343;BME280;49465;57.664;39.686;2023-07-31T01:23:19;99388.28;;;20.04;62.12
63343;BME280;49465;57.664;39.686;2023-07-31T01:26:41;99382.75;;;20.21;61.96
63343;BME280;49465;57.664;39.686;2023-07-31T01:29:03;99386.34;;;19.98;61.83
63343;BME280;49465;57.664;39.686;2023-07-31T01:31:39;99386.94;;;19.85;61.98
63343;BME280;49465;57.664;39.686;2023-07-31T01:34:09;99380.97;;;19.83;61.89
63343;BME280;49465;57.664;39.686;2023-07-31T01:36:36;99382.00;;;19.82;61.83
63343;BME280;49465;57.664;39.686;2023-07-31T01:39:05;99387.50;;;19.81;61.84
63343;BME280;49465;57.664;39.686;2023-07-31T01:41:32;99380.91;;;19.77;61.96
63343;BME280;49465;57.664;39.686;2023-07-31T01:43:58;99378.88;;;19.79;61.79
63343;BME280;49465;57.664;39.686;2023-07-31T01:46:24;99389.50;;;19.79;61.56
63343;BME280;49465;57.664;39.686;2023-07-31T01:48:51;99390.50;;;19.78;61.56
63343;BME280;49465;57.664;39.686;2023-07-31T01:51:17;99393.88;;;19.71;62.18
63343;BME280;49465;57.664;39.686;2023-07-31T01:53:43;99383.44;;;19.70;62.03
63343;BME280;49465;57.664;39.686;2023-07-31T01:56:12;99391.56;;;19.68;62.28
63343;BME280;49465;57.664;39.686;2023-07-31T01:58:39;99385.06;;;19.71;61.91
63343;BME280;49465;57.664;39.686;2023-07-31T02:01:05;99391.88;;;19.73;61.79
63343;BME280;49465;57.664;39.686;2023-07-31T02:03:32;99384.94;;;19.72;61.89
63343;BME280;49465;57.664;39.686;2023-07-31T02:05:58;99388.56;;;19.71;62.08
63343;BME280;49465;57.664;39.686;2023-07-31T02:08:24;99382.75;;;19.68;62.13
63343;BME280;49465;57.664;39.686;2023-07-31T02:10:51;99385.25;;;19.69;62.14
63343;BME280;49465;57.664;39.686;2023-07-31T02:13:17;99386.75;;;19.72;62.13
63343;BME280;49465;57.664;39.686;2023-07-31T02:15:44;99384.94;;;19.72;61.94
63343;BME280;49465;57.664;39.686;2023-07-31T02:18:11;99386.22;;;19.77;61.75
63343;BME280;49465;57.664;39.686;2023-07-31T02:20:37;99385.41;;;19.76;61.94
63343;BME280;49465;57.664;39.686;2023-07-31T02:23:03;99385.91;;;19.71;62.14
63343;BME280;49465;57.664;39.686;2023-07-31T02:25:29;99380.09;;;19.68;62.48
63343;BME280;49465;57.664;39.686;2023-07-31T02:27:56;99380.94;;;19.68;62.34
63343;BME280;49465;57.664;39.686;2023-07-31T02:30:22;99377.63;;;19.66;62.55
63343;BME280;49465;57.664;39.686;2023-07-31T02:32:48;99382.56;;;19.69;62.38
63343;BME280;49465;57.664;39.686;2023-07-31T02:35:15;99375.75;;;19.75;62.16
63343;BME280;49465;57.664;39.686;2023-07-31T02:37:47;99383.13;;;19.88;62.67
63343;BME280;49465;57.664;39.686;2023-07-31T02:40:17;99380.72;;;19.78;62.06
63343;BME280;49465;57.664;39.686;2023-07-31T02:42:43;99386.38;;;19.75;62.26
63343;BME280;49465;57.664;39.686;2023-07-31T02:45:09;99384.19;;;19.79;62.23
63343;BME280;49465;57.664;39.686;2023-07-31T02:47:36;99380.97;;;19.83;62.11
63343;BME280;49465;57.664;39.686;2023-07-31T02:50:03;99391.09;;;19.88;62.27
63343;BME280;49465;57.664;39.686;2023-07-31T02:52:29;99381.94;;;19.90;61.96
63343;BME280;49465;57.664;39.686;2023-07-31T02:54:57;99377.06;;;19.94;61.86
63343;BME280;49465;57.664;39.686;2023-07-31T02:57:23;99378.91;;;19.93;61.94
63343;BME280;49465;57.664;39.686;2023-07-31T02:59:49;99373.78;;;19.92;61.96
63343;BME280;49465;57.664;39.686;2023-07-31T03:02:16;99376.06;;;19.95;61.84
63343;BME280;49465;57.664;39.686;2023-07-31T03:04:42;99374.41;;;19.94;61.96
63343;BME280;49465;57.664;39.686;2023-07-31T03:07:08;99387.34;;;19.97;61.94
63343;BME280;49465;57.664;39.686;2023-07-31T03:09:35;99387.34;;;19.97;61.92
63343;BME280;49465;57.664;39.686;2023-07-31T03:12:01;99389.47;;;20.02;61.93
63343;BME280;49465;57.664;39.686;2023-07-31T03:14:27;99386.44;;;20.05;61.91
63343;BME280;49465;57.664;39.686;2023-07-31T03:16:54;99384.63;;;20.05;62.00
63343;BME280;49465;57.664;39.686;2023-07-31T03:19:20;99381.97;;;20.05;62.03
63343;BME280;49465;57.664;39.686;2023-07-31T03:21:49;99390.75;;;20.21;62.21
63343;BME280;49465;57.664;39.686;2023-07-31T03:24:15;99386.53;;;20.11;61.78
63343;BME280;49465;57.664;39.686;2023-07-31T03:26:42;99387.19;;;20.13;61.75
63343;BME280;49465;57.664;39.686;2023-07-31T03:29:08;99379.84;;;20.15;61.77
63343;BME280;49465;57.664;39.686;2023-07-31T03:31:38;99385.44;;;20.21;61.68
63343;BME280;49465;57.664;39.686;2023-07-31T03:34:04;99386.63;;;20.18;61.67
63343;BME280;49465;57.664;39.686;2023-07-31T03:36:30;99388.38;;;20.26;61.67
63343;BME280;49465;57.664;39.686;2023-07-31T03:38:57;99384.50;;;20.28;61.82
63343;BME280;49465;57.664;39.686;2023-07-31T03:41:24;99385.38;;;20.29;61.92
63343;BME280;49465;57.664;39.686;2023-07-31T03:43:51;99385.44;;;20.35;61.73
63343;BME280;49465;57.664;39.686;2023-07-31T03:46:20;99388.91;;;20.36;61.82
63343;BME280;49465;57.664;39.686;2023-07-31T03:48:46;99380.41;;;20.41;61.84
63343;BME280;49465;57.664;39.686;2023-07-31T03:51:12;99379.84;;;20.45;61.99
63343;BME280;49465;57.664;39.686;2023-07-31T03:53:42;99379.84;;;20.45;61.77
63343;BME280;49465;57.664;39.686;2023-07-31T03:56:08;99388.75;;;20.52;61.83
63343;BME280;49465;57.664;39.686;2023-07-31T03:58:37;99393.22;;;20.52;61.58
63343;BME280;49465;57.664;39.686;2023-07-31T04:01:06;99382.31;;;20.62;61.46
63343;BME280;49465;57.664;39.686;2023-07-31T04:03:32;99389.66;;;20.60;61.35
63343;BME280;49465;57.664;39.686;2023-07-31T04:06:02;99383.41;;;20.67;61.31
63343;BME280;49465;57.664;39.686;2023-07-31T04:08:28;99384.91;;;20.70;61.21
63343;BME280;49465;57.664;39.686;2023-07-31T04:10:57;99385.53;;;20.72;61.01
63343;BME280;49465;57.664;39.686;2023-07-31T04:13:23;99381.50;;;20.76;61.31
63343;BME280;49465;57.664;39.686;2023-07-31T04:15:50;99388.44;;;20.77;61.44
63343;BME280;49465;57.664;39.686;2023-07-31T04:18:20;99385.25;;;20.82;61.25
63343;BME280;49465;57.664;39.686;2023-07-31T04:20:46;99383.22;;;20.84;61.09
63343;BME280;49465;57.664;39.686;2023-07-31T04:23:13;99377.25;;;20.82;61.49
63343;BME280;49465;57.664;39.686;2023-07-31T04:25:45;99373.56;;;20.83;61.31
63343;BME280;49465;57.664;39.686;2023-07-31T04:28:11;99384.72;;;20.93;60.96
63343;BME280;49465;57.664;39.686;2023-07-31T04:30:37;99388.13;;;21.02;60.91
63343;BME280;49465;57.664;39.686;2023-07-31T04:33:04;99386.09;;;21.04;60.62
63343;BME280;49465;57.664;39.686;2023-07-31T04:35:30;99386.72;;;21.06;60.74
63343;BME280;49465;57.664;39.686;2023-07-31T04:37:56;99386.34;;;21.09;60.78
63343;BME280;49465;57.664;39.686;2023-07-31T04:40:28;99381.47;;;21.12;60.99
63343;BME280;49465;57.664;39.686;2023-07-31T04:42:54;99391.94;;;21.14;60.85
63343;BME280;49465;57.664;39.686;2023-07-31T04:45:24;99398.34;;;21.20;60.89
63343;BME280;49465;57.664;39.686;2023-07-31T04:50:16;99406.63;;;21.25;60.67
63343;BME280;49465;57.664;39.686;2023-07-31T04:52:43;99400.13;;;21.34;60.20
63343;BME280;49465;57.664;39.686;2023-07-31T04:55:09;99409.84;;;21.42;60.81
63343;BME280;49465;57.664;39.686;2023-07-31T04:57:35;99404.81;;;21.47;60.30
63343;BME280;49465;57.664;39.686;2023-07-31T05:00:02;99409.63;;;21.58;60.28
63343;BME280;49465;57.664;39.686;2023-07-31T05:02:28;99416.59;;;21.59;60.00
63343;BME280;49465;57.664;39.686;2023-07-31T05:04:55;99414.34;;;21.56;60.25
63343;BME280;49465;57.664;39.686;2023-07-31T05:07:24;99420.84;;;21.75;59.67
63343;BME280;49465;57.664;39.686;2023-07-31T05:09:50;99423.06;;;21.71;59.73
63343;BME280;49465;57.664;39.686;2023-07-31T05:12:16;99423.69;;;21.73;59.67
63343;BME280;49465;57.664;39.686;2023-07-31T05:14:45;99420.03;;;21.75;59.83
63343;BME280;49465;57.664;39.686;2023-07-31T05:17:11;99422.38;;;21.84;59.41
63343;BME280;49465;57.664;39.686;2023-07-31T05:19:37;99422.22;;;21.92;59.52
63343;BME280;49465;57.664;39.686;2023-07-31T05:22:08;99423.47;;;21.97;59.71
63343;BME280;49465;57.664;39.686;2023-07-31T05:24:37;99419.22;;;22.02;59.61
63343;BME280;49465;57.664;39.686;2023-07-31T05:27:07;99420.28;;;22.08;59.50
63343;BME280;49465;57.664;39.686;2023-07-31T05:29:34;99422.78;;;22.16;59.39
63343;BME280;49465;57.664;39.686;2023-07-31T05:32:01;99430.50;;;22.26;59.20
63343;BME280;49465;57.664;39.686;2023-07-31T05:34:33;99423.56;;;22.38;59.11
63343;BME280;49465;57.664;39.686;2023-07-31T05:36:59;99429.97;;;22.44;58.55
63343;BME280;49465;57.664;39.686;2023-07-31T05:39:25;99430.84;;;22.51;58.82
63343;BME280;49465;57.664;39.686;2023-07-31T05:41:51;99436.84;;;22.60;58.74
63343;BME280;49465;57.664;39.686;2023-07-31T05:44:18;99432.59;;;22.72;58.71
63343;BME280;49465;57.664;39.686;2023-07-31T05:46:44;99435.53;;;22.84;58.42
63343;BME280;49465;57.664;39.686;2023-07-31T05:49:10;99438.84;;;22.93;58.25
63343;BME280;49465;57.664;39.686;2023-07-31T05:51:37;99438.50;;;23.02;57.97
63343;BME280;49465;57.664;39.686;2023-07-31T05:54:03;99451.25;;;23.07;58.40
63343;BME280;49465;57.664;39.686;2023-07-31T05:56:32;99438.78;;;23.21;57.74
63343;BME280;49465;57.664;39.686;2023-07-31T05:59:00;99443.91;;;23.22;57.63
63343;BME280;49465;57.664;39.686;2023-07-31T06:01:26;99451.97;;;23.36;57.95
63343;BME280;49465;57.664;39.686;2023-07-31T06:03:52;99443.13;;;23.42;57.43
63343;BME280;49465;57.664;39.686;2023-07-31T06:06:19;99454.25;;;23.52;57.48
63343;BME280;49465;57.664;39.686;2023-07-31T06:08:52;99454.69;;;23.62;56.96
63343;BME280;49465;57.664;39.686;2023-07-31T06:11:22;99458.19;;;23.69;56.88
63343;BME280;49465;57.664;39.686;2023-07-31T06:13:49;99449.38;;;23.76;56.76
63343;BME280;49465;57.664;39.686;2023-07-31T06:16:16;99452.88;;;23.83;56.97
63343;BME280;49465;57.664;39.686;2023-07-31T06:18:43;99452.69;;;23.91;56.73
63343;BME280;49465;57.664;39.686;2023-07-31T06:21:12;99456.16;;;24.05;55.88
63343;BME280;49465;57.664;39.686;2023-07-31T06:23:44;99450.41;;;24.15;55.66
63343;BME280;49465;57.664;39.686;2023-07-31T06:26:10;99445.25;;;24.06;55.73
63343;BME280;49465;57.664;39.686;2023-07-31T06:28:42;99457.63;;;24.21;55.64
63343;BME280;49465;57.664;39.686;2023-07-31T06:31:08;99455.97;;;24.20;56.08
63343;BME280;49465;57.664;39.686;2023-07-31T06:33:44;99455.94;;;24.46;54.68
63343;BME280;49465;57.664;39.686;2023-07-31T06:36:10;99452.88;;;24.23;55.44
63343;BME280;49465;57.664;39.686;2023-07-31T06:38:39;99460.69;;;24.24;54.90
63343;BME280;49465;57.664;39.686;2023-07-31T06:41:05;99464.19;;;24.32;55.13
63343;BME280;49465;57.664;39.686;2023-07-31T06:43:32;99463.78;;;24.35;54.52
63343;BME280;49465;57.664;39.686;2023-07-31T06:46:00;99463.38;;;24.31;54.35
63343;BME280;49465;57.664;39.686;2023-07-31T06:48:30;99466.66;;;24.46;54.74
63343;BME280;49465;57.664;39.686;2023-07-31T06:50:56;99469.69;;;24.50;54.44
63343;BME280;49465;57.664;39.686;2023-07-31T06:53:26;99462.09;;;24.60;53.96
63343;BME280;49465;57.664;39.686;2023-07-31T06:55:53;99465.41;;;24.62;54.21
63343;BME280;49465;57.664;39.686;2023-07-31T06:58:27;99469.22;;;24.86;53.95
63343;BME280;49465;57.664;39.686;2023-07-31T07:00:53;99469.03;;;24.81;53.91
63343;BME280;49465;57.664;39.686;2023-07-31T07:03:22;99474.50;;;25.06;53.70
63343;BME280;49465;57.664;39.686;2023-07-31T07:05:51;99469.41;;;24.98;53.28
63343;BME280;49465;57.664;39.686;2023-07-31T07:08:20;99475.56;;;24.99;52.18
63343;BME280;49465;57.664;39.686;2023-07-31T07:10:48;99472.00;;;25.25;53.05
63343;BME280;49465;57.664;39.686;2023-07-31T07:13:15;99472.59;;;25.27;51.92
63343;BME280;49465;57.664;39.686;2023-07-31T07:15:41;99463.63;;;25.40;51.69
63343;BME280;49465;57.664;39.686;2023-07-31T07:18:07;99469.19;;;25.45;51.46
63343;BME280;49465;57.664;39.686;2023-07-31T07:20:37;99468.78;;;25.73;52.18
63343;BME280;49465;57.664;39.686;2023-07-31T07:23:06;99464.47;;;25.72;50.86
63343;BME280;49465;57.664;39.686;2023-07-31T07:25:33;99468.16;;;25.78;50.54
63343;BME280;49465;57.664;39.686;2023-07-31T07:28:02;99475.09;;;25.92;50.19
63343;BME280;49465;57.664;39.686;2023-07-31T07:30:31;99468.41;;;26.01;50.64
63343;BME280;49465;57.664;39.686;2023-07-31T07:32:59;99471.13;;;26.20;50.42
63343;BME280;49465;57.664;39.686;2023-07-31T07:35:28;99480.56;;;26.29;49.28
63343;BME280;49465;57.664;39.686;2023-07-31T07:37:57;99479.06;;;26.33;50.43
63343;BME280;49465;57.664;39.686;2023-07-31T07:40:26;99481.53;;;26.53;50.50
63343;BME280;49465;57.664;39.686;2023-07-31T07:42:58;99487.25;;;26.63;50.15
63343;BME280;49465;57.664;39.686;2023-07-31T07:45:26;99487.41;;;26.69;49.38
63343;BME280;49465;57.664;39.686;2023-07-31T07:47:58;99488.38;;;26.93;48.95
63343;BME280;49465;57.664;39.686;2023-07-31T07:50:25;99485.09;;;26.91;48.56
63343;BME280;49465;57.664;39.686;2023-07-31T07:52:51;99484.44;;;26.95;48.68
63343;BME280;49465;57.664;39.686;2023-07-31T07:55:20;99481.81;;;27.07;49.10
63343;BME280;49465;57.664;39.686;2023-07-31T07:57:46;99486.34;;;27.07;47.56
63343;BME280;49465;57.664;39.686;2023-07-31T08:00:16;99484.03;;;27.10;48.09
63343;BME280;49465;57.664;39.686;2023-07-31T08:02:46;99479.13;;;27.07;47.52
63343;BME280;49465;57.664;39.686;2023-07-31T08:05:15;99479.47;;;27.11;47.86
63343;BME280;49465;57.664;39.686;2023-07-31T08:07:46;99492.25;;;27.15;46.93
63343;BME280;49465;57.664;39.686;2023-07-31T08:10:15;99492.78;;;27.24;47.52
63343;BME280;49465;57.664;39.686;2023-07-31T08:12:44;99493.88;;;27.35;47.04
63343;BME280;49465;57.664;39.686;2023-07-31T08:15:10;99488.03;;;27.38;46.88
63343;BME280;49465;57.664;39.686;2023-07-31T08:17:37;99491.94;;;27.54;46.66
63343;BME280;49465;57.664;39.686;2023-07-31T08:20:07;99489.56;;;27.76;46.52
63343;BME280;49465;57.664;39.686;2023-07-31T08:22:40;99494.06;;;27.94;47.04
63343;BME280;49465;57.664;39.686;2023-07-31T08:25:09;99502.47;;;27.86;44.71
63343;BME280;49465;57.664;39.686;2023-07-31T08:27:40;99501.50;;;27.80;44.98
63343;BME280;49465;57.664;39.686;2023-07-31T08:30:08;99506.31;;;27.78;44.77
63343;BME280;49465;57.664;39.686;2023-07-31T08:32:37;99499.13;;;27.60;44.58
63343;BME280;49465;57.664;39.686;2023-07-31T08:35:07;99499.88;;;27.79;45.90
63343;BME280;49465;57.664;39.686;2023-07-31T08:37:34;99494.75;;;27.89;45.28
63343;BME280;49465;57.664;39.686;2023-07-31T08:40:00;99497.44;;;27.89;44.13
63343;BME280;49465;57.664;39.686;2023-07-31T08:42:27;99499.25;;;27.95;44.30
63343;BME280;49465;57.664;39.686;2023-07-31T08:44:59;99500.06;;;28.19;43.05
63343;BME280;49465;57.664;39.686;2023-07-31T08:47:31;99495.16;;;28.28;44.26
63343;BME280;49465;57.664;39.686;2023-07-31T08:50:03;99504.06;;;28.40;43.86
63343;BME280;49465;57.664;39.686;2023-07-31T08:52:45;99496.81;;;28.53;43.25
63343;BME280;49465;57.664;39.686;2023-07-31T08:55:17;99500.91;;;28.67;43.39
63343;BME280;49465;57.664;39.686;2023-07-31T08:58:01;99502.38;;;28.87;43.42
63343;BME280;49465;57.664;39.686;2023-07-31T09:00:35;99507.00;;;29.55;41.87
63343;BME280;49465;57.664;39.686;2023-07-31T09:03:15;99502.72;;;29.02;40.29
63343;BME280;49465;57.664;39.686;2023-07-31T09:05:48;99506.13;;;28.97;41.24
63343;BME280;49465;57.664;39.686;2023-07-31T09:08:19;99515.47;;;29.07;42.39
63343;BME280;49465;57.664;39.686;2023-07-31T09:10:49;99508.47;;;29.06;42.60
63343;BME280;49465;57.664;39.686;2023-07-31T09:13:16;99516.31;;;29.19;42.61
63343;BME280;49465;57.664;39.686;2023-07-31T09:15:46;99512.16;;;29.28;42.27
63343;BME280;49465;57.664;39.686;2023-07-31T09:18:13;99509.41;;;29.40;41.90
63343;BME280;49465;57.664;39.686;2023-07-31T09:20:43;99517.59;;;29.45;41.75
63343;BME280;49465;57.664;39.686;2023-07-31T09:23:13;99520.84;;;29.59;41.35
63343;BME280;49465;57.664;39.686;2023-07-31T09:25:45;99525.66;;;30.20;40.03
63343;BME280;49465;57.664;39.686;2023-07-31T09:28:12;99528.03;;;29.25;40.36
63343;BME280;49465;57.664;39.686;2023-07-31T09:30:55;99533.34;;;29.48;41.04
63343;BME280;49465;57.664;39.686;2023-07-31T09:33:22;99527.81;;;29.03;42.21
63343;BME280;49465;57.664;39.686;2023-07-31T09:35:48;99531.25;;;28.86;41.98
63343;BME280;49465;57.664;39.686;2023-07-31T09:38:15;99534.41;;;28.83;41.52
63343;BME280;49465;57.664;39.686;2023-07-31T09:40:44;99523.38;;;28.85;41.29
63343;BME280;49465;57.664;39.686;2023-07-31T09:43:13;99532.22;;;28.80;41.72
63343;BME280;49465;57.664;39.686;2023-07-31T09:45:56;99535.56;;;29.23;42.20
63343;BME280;49465;57.664;39.686;2023-07-31T09:48:24;99532.41;;;28.90;42.02
63343;BME280;49465;57.664;39.686;2023-07-31T09:50:54;99527.75;;;28.86;41.92
63343;BME280;49465;57.664;39.686;2023-07-31T09:53:28;99522.03;;;29.11;41.97
63343;BME280;49465;57.664;39.686;2023-07-31T09:56:00;99527.00;;;29.02;41.23
63343;BME280;49465;57.664;39.686;2023-07-31T09:58:35;99531.88;;;29.86;41.04
63343;BME280;49465;57.664;39.686;2023-07-31T10:01:02;99533.44;;;29.25;42.17
63343;BME280;49465;57.664;39.686;2023-07-31T10:03:30;99536.56;;;29.33;43.51
63343;BME280;49465;57.664;39.686;2023-07-31T10:05:58;99534.66;;;29.34;41.50
63343;BME280;49465;57.664;39.686;2023-07-31T10:08:35;99539.09;;;29.40;40.53
63343;BME280;49465;57.664;39.686;2023-07-31T10:11:02;99536.00;;;29.20;40.87
63343;BME280;49465;57.664;39.686;2023-07-31T10:13:35;99539.16;;;29.28;39.79
63343;BME280;49465;57.664;39.686;2023-07-31T10:16:15;99533.75;;;29.28;39.99
63343;BME280;49465;57.664;39.686;2023-07-31T10:18:43;99542.09;;;29.27;40.55
63343;BME280;49465;57.664;39.686;2023-07-31T10:21:10;99539.06;;;29.23;38.17
63343;BME280;49465;57.664;39.686;2023-07-31T10:23:37;99533.44;;;29.25;39.01
63343;BME280;49465;57.664;39.686;2023-07-31T10:26:08;99536.94;;;29.54;40.54
63343;BME280;49465;57.664;39.686;2023-07-31T10:28:35;99541.59;;;29.30;39.53
63343;BME280;49465;57.664;39.686;2023-07-31T10:31:03;99540.22;;;29.56;39.22
63343;BME280;49465;57.664;39.686;2023-07-31T10:33:31;99542.28;;;29.77;39.06
63343;BME280;49465;57.664;39.686;2023-07-31T10:36:17;99538.69;;;30.06;38.40
63343;BME280;49465;57.664;39.686;2023-07-31T10:38:48;99541.31;;;29.84;39.41
63343;BME280;49465;57.664;39.686;2023-07-31T10:41:15;99547.19;;;29.81;38.92
63343;BME280;49465;57.664;39.686;2023-07-31T10:43:46;99546.47;;;30.02;39.10
63343;BME280;49465;57.664;39.686;2023-07-31T10:46:16;99543.34;;;29.93;37.87
63343;BME280;49465;57.664;39.686;2023-07-31T10:48:58;99555.25;;;30.09;37.26
63343;BME280;49465;57.664;39.686;2023-07-31T10:51:36;99542.00;;;29.79;39.17
63343;BME280;49465;57.664;39.686;2023-07-31T10:54:31;99538.13;;;30.21;36.88
63343;BME280;49465;57.664;39.686;2023-07-31T10:57:02;99542.59;;;29.81;38.99
63343;BME280;49465;57.664;39.686;2023-07-31T10:59:38;99547.69;;;29.77;37.58
63343;BME280;49465;57.664;39.686;2023-07-31T11:02:04;99547.09;;;29.64;39.37
63343;BME280;49465;57.664;39.686;2023-07-31T11:04:36;99554.94;;;29.77;38.89
63343;BME280;49465;57.664;39.686;2023-07-31T11:07:08;99553.88;;;29.78;38.84
63343;BME280;49465;57.664;39.686;2023-07-31T11:09:39;99553.97;;;29.83;40.13
63343;BME280;49465;57.664;39.686;2023-07-31T11:12:08;99559.38;;;29.83;40.36
63343;BME280;49465;57.664;39.686;2023-07-31T11:14:36;99548.84;;;29.70;39.75
63343;BME280;49465;57.664;39.686;2023-07-31T11:17:09;99550.16;;;29.96;40.23
63343;BME280;49465;57.664;39.686;2023-07-31T11:19:42;99550.31;;;29.89;40.22
63343;BME280;49465;57.664;39.686;2023-07-31T11:22:09;99547.94;;;30.10;40.28
63343;BME280;49465;57.664;39.686;2023-07-31T11:24:35;99551.47;;;30.27;39.79
63343;BME280;49465;57.664;39.686;2023-07-31T11:27:08;99556.38;;;30.64;39.40
63343;BME280;49465;57.664;39.686;2023-07-31T11:29:37;99556.97;;;30.49;39.02
63343;BME280;49465;57.664;39.686;2023-07-31T11:32:08;99553.78;;;30.52;37.78
63343;BME280;49465;57.664;39.686;2023-07-31T11:34:54;99554.75;;;30.85;37.50
63343;BME280;49465;57.664;39.686;2023-07-31T11:37:25;99558.84;;;30.49;37.73
63343;BME280;49465;57.664;39.686;2023-07-31T11:40:04;99556.41;;;30.47;37.52
63343;BME280;49465;57.664;39.686;2023-07-31T11:42:31;99559.53;;;30.56;38.04
63343;BME280;49465;57.664;39.686;2023-07-31T11:45:04;99563.72;;;30.86;36.63
63343;BME280;49465;57.664;39.686;2023-07-31T11:47:33;99558.13;;;30.92;37.88
63343;BME280;49465;57.664;39.686;2023-07-31T11:50:08;99560.16;;;31.02;35.85
63343;BME280;49465;57.664;39.686;2023-07-31T11:52:44;99559.03;;;31.20;37.92
63343;BME280;49465;57.664;39.686;2023-07-31T11:55:11;99559.09;;;31.03;37.77
63343;BME280;49465;57.664;39.686;2023-07-31T11:57:44;99553.81;;;31.13;37.29
63343;BME280;49465;57.664;39.686;2023-07-31T12:00:12;99561.03;;;31.30;37.52
63343;BME280;49465;57.664;39.686;2023-07-31T12:02:41;99546.88;;;31.45;37.42
63343;BME280;49465;57.664;39.686;2023-07-31T12:05:17;99556.19;;;31.81;35.50
63343;BME280;49465;57.664;39.686;2023-07-31T12:07:47;99550.31;;;31.89;37.25
63343;BME280;49465;57.664;39.686;2023-07-31T12:10:43;99547.78;;;32.42;37.98
63343;BME280;49465;57.664;39.686;2023-07-31T12:13:23;99545.63;;;32.44;37.46
63343;BME280;49465;57.664;39.686;2023-07-31T12:15:57;99551.31;;;32.48;36.31
63343;BME280;49465;57.664;39.686;2023-07-31T12:18:39;99560.06;;;32.55;34.77
63343;BME280;49465;57.664;39.686;2023-07-31T12:21:08;99556.78;;;32.53;34.63
63343;BME280;49465;57.664;39.686;2023-07-31T12:23:40;99543.34;;;32.68;34.70
63343;BME280;49465;57.664;39.686;2023-07-31T12:26:11;99555.41;;;32.88;33.29
63343;BME280;49465;57.664;39.686;2023-07-31T12:28:47;99540.03;;;33.09;34.53
63343;BME280;49465;57.664;39.686;2023-07-31T12:31:20;99559.03;;;33.09;32.32
63343;BME280;49465;57.664;39.686;2023-07-31T12:33:58;99556.03;;;33.05;33.00
63343;BME280;49465;57.664;39.686;2023-07-31T12:36:25;99559.75;;;32.94;33.45
63343;BME280;49465;57.664;39.686;2023-07-31T12:38:54;99554.09;;;33.01;33.87
63343;BME280;49465;57.664;39.686;2023-07-31T12:41:24;99552.84;;;33.19;34.20
63343;BME280;49465;57.664;39.686;2023-07-31T12:43:56;99553.97;;;33.33;34.24
63343;BME280;49465;57.664;39.686;2023-07-31T12:46:28;99563.31;;;33.63;34.42
63343;BME280;49465;57.664;39.686;2023-07-31T12:49:00;99561.72;;;33.82;34.07
63343;BME280;49465;57.664;39.686;2023-07-31T12:51:32;99566.34;;;33.92;34.01
63343;BME280;49465;57.664;39.686;2023-07-31T12:54:00;99566.63;;;33.96;33.39
63343;BME280;49465;57.664;39.686;2023-07-31T12:56:32;99565.28;;;33.93;33.29
63343;BME280;49465;57.664;39.686;2023-07-31T12:59:01;99564.16;;;34.04;33.99
63343;BME280;49465;57.664;39.686;2023-07-31T13:01:34;99571.28;;;34.16;33.40
63343;BME280;49465;57.664;39.686;2023-07-31T13:04:02;99570.44;;;34.10;32.97